Time;durP1;ratioP1;P1;durP2;ratioP2;P2;SDS_P1;SDS_P2;PMS_P1;PMS_P2;Temp;Humidity;BMP_temperature;BMP_pressure;BME280_temperature;BME280_humidity;BME280_pressure;Samples;Min_cycle;Max_cycle;Signal;HPM_P1;HPM_P2
2022/06/18 00:00:57;;;;;;;5.93;2.97;;;22.50;1.00;;;;;;5071284;28;20461;-55
2022/06/18 00:03:24;;;;;;;3.50;2.20;;;22.50;1.00;;;;;;5052814;28;20504;-54
2022/06/18 00:05:54;;;;;;;3.83;2.23;;;22.40;1.00;;;;;;5059510;28;20459;-56
2022/06/18 00:08:29;;;;;;;3.03;2.07;;;22.40;1.00;;;;;;5071175;28;20510;-58
2022/06/18 00:13:39;;;;;;;4.73;2.20;;;22.30;1.00;;;;;;5052362;28;20527;-55
2022/06/18 00:13:45;;;;;;;2.10;1.90;;;22.30;1.00;;;;;;5050468;28;20435;-53
2022/06/18 00:16:14;;;;;;;3.23;2.93;;;22.30;1.00;;;;;;5051089;28;20450;-55
2022/06/18 00:18:40;;;;;;;2.40;2.20;;;22.20;1.00;;;;;;5050232;28;20474;-55
2022/06/18 00:21:08;;;;;;;3.63;2.23;;;22.10;1.00;;;;;;5050829;28;20540;-55
2022/06/18 00:23:36;;;;;;;4.73;1.93;;;22.10;1.00;;;;;;5050815;28;20210;-56
2022/06/18 00:26:06;;;;;;;4.27;2.27;;;22.20;1.00;;;;;;5062020;28;20930;-56
2022/06/18 00:28:32;;;;;;;2.50;1.93;;;22.10;1.00;;;;;;5055528;28;20450;-55
2022/06/18 00:30:58;;;;;;;4.40;2.43;;;22.10;1.00;;;;;;5050484;28;20466;-54
2022/06/18 00:33:25;;;;;;;2.40;2.20;;;22.10;1.00;;;;;;5052407;28;20450;-56
2022/06/18 00:35:56;;;;;;;3.10;2.47;;;22.00;1.00;;;;;;5050311;28;20505;-55
2022/06/18 00:38:21;;;;;;;6.33;2.33;;;;;;;;;;5055521;28;20434;-55
2022/06/18 00:40:47;;;;;;;4.53;2.57;;;21.90;1.00;;;;;;5070074;28;20452;-56
2022/06/18 00:43:21;;;;;;;2.90;2.13;;;21.80;1.00;;;;;;5070508;28;20429;-56
2022/06/18 00:46:10;;;;;;;2.33;2.10;;;21.80;1.00;;;;;;5053039;28;20210;-56
2022/06/18 00:48:57;;;;;;;3.23;2.27;;;21.80;1.00;;;;;;5047766;28;20461;-52
2022/06/18 00:51:28;;;;;;;4.00;2.37;;;;;;;;;;5060052;28;20843;-55
2022/06/18 00:54:33;;;;;;;3.03;2.30;;;22.40;1.00;;;;;;5047031;28;20455;-55
2022/06/18 00:57:32;;;;;;;3.53;2.40;;;21.60;1.00;;;;;;5053450;28;20525;-54
2022/06/18 01:00:18;;;;;;;2.50;2.30;;;21.50;1.00;;;;;;5067549;28;20515;-56
2022/06/18 01:02:46;;;;;;;2.50;2.27;;;21.50;1.00;;;;;;5061845;28;20943;-54
2022/06/18 01:05:18;;;;;;;2.50;2.30;;;21.50;1.00;;;;;;5070164;28;20946;-55
2022/06/18 01:07:46;;;;;;;2.63;2.43;;;21.50;1.00;;;;;;5069459;28;20517;-54
2022/06/18 01:10:24;;;;;;;6.37;2.30;;;21.40;1.00;;;;;;5050024;28;20454;-55
2022/06/18 01:12:50;;;;;;;4.30;2.20;;;21.40;1.00;;;;;;5065085;28;21026;-54
2022/06/18 01:15:20;;;;;;;2.80;1.93;;;21.40;1.00;;;;;;5066313;28;20517;-55
2022/06/18 01:17:48;;;;;;;4.00;2.30;;;21.40;1.00;;;;;;5064409;28;20249;-53
2022/06/18 01:20:14;;;;;;;2.40;2.20;;;21.40;1.00;;;;;;5069837;28;20476;-55
2022/06/18 01:22:57;;;;;;;4.60;2.17;;;21.30;1.00;;;;;;5066787;28;20460;-55
2022/06/18 01:25:26;;;;;;;3.00;2.20;;;21.40;1.00;;;;;;5049506;28;20484;-56
2022/06/18 01:27:53;;;;;;;3.20;2.13;;;21.40;1.00;;;;;;5065649;28;20923;-55
2022/06/18 01:30:21;;;;;;;3.03;2.23;;;21.20;1.00;;;;;;5069012;28;20995;-55
2022/06/18 01:32:51;;;;;;;2.50;2.30;;;21.20;1.00;;;;;;5055522;28;20442;-56
2022/06/18 01:35:18;;;;;;;2.40;2.20;;;21.20;1.00;;;;;;5049928;28;20442;-56
2022/06/18 01:37:45;;;;;;;2.43;2.23;;;21.10;1.00;;;;;;5050020;28;20537;-53
2022/06/18 01:40:18;;;;;;;4.30;2.60;;;21.10;1.00;;;;;;5064860;28;20437;-56
2022/06/18 01:42:47;;;;;;;3.30;2.47;;;21.20;1.00;;;;;;5069817;28;20946;-52
2022/06/18 01:45:22;;;;;;;2.57;2.20;;;21.20;1.00;;;;;;5069895;28;20476;-54
2022/06/18 01:48:03;;;;;;;2.60;2.40;;;21.10;1.00;;;;;;5069725;28;20469;-56
2022/06/18 01:50:42;;;;;;;3.53;2.50;;;20.90;1.00;;;;;;5069580;28;20533;-53
2022/06/18 01:53:37;;;;;;;3.13;2.47;;;21.00;1.00;;;;;;5067107;28;20520;-56
2022/06/18 01:56:09;;;;;;;2.63;2.30;;;20.90;1.00;;;;;;5045484;28;20469;-54
2022/06/18 01:58:39;;;;;;;5.20;2.40;;;20.80;1.00;;;;;;5049138;28;20438;-54
2022/06/18 02:01:14;;;;;;;2.43;2.23;;;20.90;1.00;;;;;;5049535;28;20442;-54
2022/06/18 02:03:40;;;;;;;2.90;2.53;;;20.90;1.00;;;;;;5049656;28;20800;-54
2022/06/18 02:06:08;;;;;;;3.80;2.70;;;20.80;1.00;;;;;;5049596;28;20434;-54
2022/06/18 02:08:34;;;;;;;2.50;2.13;;;20.80;1.00;;;;;;5049307;28;20184;-56
2022/06/18 02:11:05;;;;;;;5.50;2.50;;;20.70;1.00;;;;;;5046494;28;20532;-54
2022/06/18 02:13:38;;;;;;;3.73;2.40;;;20.70;1.00;;;;;;5049243;28;20450;-56
2022/06/18 02:16:09;;;;;;;3.60;2.57;;;;;;;;;;5049650;28;20756;-55
2022/06/18 02:18:36;;;;;;;2.83;2.47;;;20.60;1.00;;;;;;5049328;28;20434;-55
2022/06/18 02:21:07;;;;;;;2.70;2.13;;;20.60;1.00;;;;;;5049589;28;20438;-53
2022/06/18 02:23:33;;;;;;;5.40;2.50;;;20.50;1.00;;;;;;5066124;28;20434;-56
2022/06/18 02:25:59;;;;;;;4.60;2.23;;;20.50;1.00;;;;;;5069247;28;20491;-54
2022/06/18 02:28:33;;;;;;;6.30;2.80;;;20.40;1.00;;;;;;5054526;28;20450;-53
2022/06/18 02:31:01;;;;;;;2.90;2.70;;;20.40;1.00;;;;;;5049025;28;21268;-53
2022/06/18 02:33:41;;;;;;;2.60;2.33;;;20.40;1.00;;;;;;5050037;28;20481;-53
2022/06/18 02:36:20;;;;;;;2.83;2.50;;;20.30;1.00;;;;;;5046691;28;20445;-55
2022/06/18 02:38:47;;;;;;;4.17;2.93;;;20.30;1.00;;;;;;5048872;28;20508;-53
2022/06/18 02:41:13;;;;;;;3.00;2.80;;;20.30;1.00;;;;;;5066522;28;20437;-54
2022/06/18 02:43:41;;;;;;;2.77;2.57;;;20.20;1.00;;;;;;5069329;28;20433;-54
2022/06/18 02:46:08;;;;;;;2.67;2.30;;;20.20;1.00;;;;;;5052638;28;20458;-56
2022/06/18 02:48:36;;;;;;;4.77;2.90;;;20.20;1.00;;;;;;5067470;28;20433;-54
2022/06/18 02:51:02;;;;;;;2.90;2.23;;;20.20;1.00;;;;;;5072365;28;20477;-56
2022/06/18 02:53:30;;;;;;;3.33;3.00;;;20.10;1.00;;;;;;5052164;28;20541;-54
2022/06/18 02:56:00;;;;;;;2.60;2.30;;;20.10;1.00;;;;;;5052488;28;20529;-56
2022/06/18 02:58:30;;;;;;;2.50;2.30;;;20.10;1.00;;;;;;5069737;28;20445;-53
2022/06/18 03:00:57;;;;;;;5.43;2.70;;;20.10;1.00;;;;;;5072104;28;20430;-54
2022/06/18 03:03:26;;;;;;;2.43;2.23;;;20.00;1.00;;;;;;5064627;28;20442;-56
2022/06/18 03:05:54;;;;;;;4.40;2.80;;;19.90;1.00;;;;;;5064216;28;20446;-56
2022/06/18 03:08:24;;;;;;;2.80;2.50;;;19.90;1.00;;;;;;5060722;28;20454;-54
2022/06/18 03:13:36;;;;;;;2.47;2.23;;;19.90;1.00;;;;;;5052542;28;20440;-53
2022/06/18 03:16:08;;;;;;;4.10;2.77;;;19.90;1.00;;;;;;5052043;28;20795;-55
2022/06/18 03:18:36;;;;;;;4.13;2.57;;;19.90;1.00;;;;;;5072408;28;20965;-54
2022/06/18 03:21:24;;;;;;;2.67;2.27;;;19.90;1.00;;;;;;5072273;28;20765;-53
2022/06/18 03:23:50;;;;;;;3.20;2.57;;;19.90;1.00;;;;;;5072348;28;20956;-55
2022/06/18 03:26:17;;;;;;;3.37;2.47;;;19.90;1.00;;;;;;5072056;28;20429;-55
2022/06/18 03:28:44;;;;;;;4.80;3.23;;;20.00;1.00;;;;;;5059226;28;20187;-53
2022/06/18 03:31:10;;;;;;;4.80;2.97;;;20.00;1.00;;;;;;5051859;28;20462;-54
2022/06/18 03:33:36;;;;;;;3.87;2.43;;;20.00;1.00;;;;;;5049054;28;21250;-53
2022/06/18 03:36:07;;;;;;;3.20;2.03;;;20.00;1.00;;;;;;5060228;28;20465;-55
2022/06/18 03:38:33;;;;;;;2.80;2.60;;;20.20;1.00;;;;;;5071400;28;20795;-53
2022/06/18 03:40:59;;;;;;;3.00;2.40;;;20.20;1.00;;;;;;5071589;28;20438;-55
2022/06/18 03:43:26;;;;;;;4.10;2.83;;;20.30;1.00;;;;;;5066961;28;20184;-53
2022/06/18 03:45:57;;;;;;;4.70;3.00;;;20.50;1.00;;;;;;5049393;28;21177;-55
2022/06/18 03:48:49;;;;;;;2.87;2.60;;;20.70;1.00;;;;;;5051547;28;20434;-53
2022/06/18 03:51:16;;;;;;;2.40;2.17;;;20.80;1.00;;;;;;5051124;28;20525;-55
2022/06/18 03:53:42;;;;;;;2.40;2.20;;;20.90;1.00;;;;;;5050685;28;20443;-54
2022/06/18 03:56:11;;;;;;;6.57;2.40;;;20.90;1.00;;;;;;5065854;28;20445;-52
2022/06/18 03:58:37;;;;;;;3.20;2.60;;;21.10;1.00;;;;;;5071063;28;20184;-56
2022/06/18 04:01:06;;;;;;;2.30;2.13;;;21.10;1.00;;;;;;5071257;28;21028;-54
2022/06/18 04:03:32;;;;;;;3.07;2.77;;;21.00;1.00;;;;;;5070833;28;20452;-55
2022/06/18 04:05:57;;;;;;;2.80;2.60;;;20.90;1.00;;;;;;5071022;28;20536;-54
2022/06/18 04:08:23;;;;;;;4.50;3.10;;;20.90;1.00;;;;;;5070889;28;20186;-55
2022/06/18 04:10:49;;;;;;;3.03;2.60;;;20.90;1.00;;;;;;5070724;28;20207;-53
2022/06/18 04:13:16;;;;;;;3.47;2.50;;;20.90;1.00;;;;;;5071065;28;20436;-54
2022/06/18 04:15:41;;;;;;;3.87;2.37;;;20.90;1.00;;;;;;5053161;28;20212;-54
2022/06/18 04:18:08;;;;;;;3.00;2.67;;;20.80;1.00;;;;;;5051113;28;20975;-53
2022/06/18 04:20:36;;;;;;;3.57;2.80;;;20.90;1.00;;;;;;5053717;28;20273;-57
2022/06/18 04:23:03;;;;;;;4.60;2.60;;;21.00;1.00;;;;;;5070823;28;20511;-55
2022/06/18 04:25:29;;;;;;;2.63;2.43;;;21.10;1.00;;;;;;5070813;28;20954;-54
2022/06/18 04:27:57;;;;;;;2.93;2.40;;;21.10;1.00;;;;;;5060142;28;20477;-54
2022/06/18 04:30:28;;;;;;;3.23;3.03;;;21.20;1.00;;;;;;5059801;28;20465;-57
2022/06/18 04:32:54;;;;;;;2.93;2.50;;;21.20;1.00;;;;;;5070361;28;20437;-53
2022/06/18 04:35:20;;;;;;;3.27;2.60;;;21.20;1.00;;;;;;5070827;28;20944;-54
2022/06/18 04:37:48;;;;;;;3.60;2.43;;;21.30;1.00;;;;;;5070437;28;20433;-54
2022/06/18 04:40:18;;;;;;;3.37;2.50;;;21.50;1.00;;;;;;5070547;28;20755;-56
2022/06/18 04:42:43;;;;;;;2.50;2.30;;;21.50;1.00;;;;;;5058144;28;20443;-55
2022/06/18 04:45:09;;;;;;;3.23;2.70;;;21.50;1.00;;;;;;5050671;28;20430;-55
2022/06/18 04:47:36;;;;;;;2.83;2.57;;;21.60;1.00;;;;;;5057408;28;20202;-54
2022/06/18 04:50:03;;;;;;;2.30;2.10;;;21.60;1.00;;;;;;5068619;28;20509;-53
2022/06/18 04:52:28;;;;;;;3.00;2.37;;;21.60;1.00;;;;;;5070241;28;20441;-55
2022/06/18 04:54:54;;;;;;;4.27;2.80;;;21.60;1.00;;;;;;5069916;28;20468;-56
2022/06/18 04:57:21;;;;;;;3.80;2.30;;;21.70;1.00;;;;;;5058288;28;20193;-53
2022/06/18 04:59:47;;;;;;;5.17;2.30;;;21.80;1.00;;;;;;5049950;28;20191;-55
2022/06/18 05:02:22;;;;;;;2.83;2.10;;;21.80;1.00;;;;;;5050014;28;20478;-55
2022/06/18 05:04:49;;;;;;;2.53;2.33;;;21.90;1.00;;;;;;5050208;28;20438;-54
2022/06/18 05:07:14;;;;;;;4.20;2.33;;;22.00;1.00;;;;;;5050190;28;20518;-56
2022/06/18 05:09:40;;;;;;;3.30;2.20;;;21.90;1.00;;;;;;5049938;28;20577;-54
2022/06/18 05:12:06;;;;;;;2.40;2.20;;;;;;;;;;5049567;28;20192;-54
2022/06/18 05:14:32;;;;;;;3.37;2.47;;;22.20;1.00;;;;;;5050072;28;20835;-55
2022/06/18 05:17:00;;;;;;;3.60;2.40;;;22.40;1.00;;;;;;5050303;28;20431;-55
2022/06/18 05:19:27;;;;;;;2.07;1.97;;;22.40;1.00;;;;;;5049663;28;20207;-54
2022/06/18 05:21:53;;;;;;;3.70;2.80;;;22.40;1.00;;;;;;5049971;28;20968;-53
2022/06/18 05:24:19;;;;;;;4.23;2.80;;;;;;;;;;5050027;28;20445;-58
2022/06/18 05:26:50;;;;;;;3.20;2.03;;;22.60;1.00;;;;;;5050112;28;20521;-53
2022/06/18 05:29:17;;;;;;;2.13;1.90;;;;;;;;;;5050127;28;20435;-54
2022/06/18 05:31:43;;;;;;;3.33;2.17;;;22.80;1.00;;;;;;5049342;28;20472;-55
2022/06/18 05:34:09;;;;;;;2.47;2.27;;;22.90;1.00;;;;;;5047287;28;20946;-54
2022/06/18 05:36:35;;;;;;;1.80;1.70;;;23.00;1.00;;;;;;5069263;28;20426;-55
2022/06/18 05:39:01;;;;;;;2.60;2.40;;;23.10;1.00;;;;;;5069749;28;20476;-54
2022/06/18 05:41:27;;;;;;;3.23;2.17;;;23.10;1.00;;;;;;5063859;28;20203;-56
2022/06/18 05:43:53;;;;;;;2.90;2.17;;;23.10;1.00;;;;;;5049858;28;20624;-53
2022/06/18 05:46:19;;;;;;;4.13;1.80;;;23.20;1.00;;;;;;5049568;28;20509;-55
2022/06/18 05:48:44;;;;;;;2.77;2.00;;;23.30;1.00;;;;;;5068416;28;20194;-55
2022/06/18 05:51:10;;;;;;;2.40;2.20;;;23.40;1.00;;;;;;5069426;28;20572;-56
2022/06/18 05:53:36;;;;;;;3.00;2.10;;;23.50;1.00;;;;;;5069695;28;20187;-57
2022/06/18 05:56:02;;;;;;;4.60;1.90;;;23.70;1.00;;;;;;5069790;28;20436;-53
2022/06/18 05:58:28;;;;;;;4.03;2.73;;;23.80;1.00;;;;;;5069687;28;20175;-55
2022/06/18 06:00:54;;;;;;;4.57;1.90;;;23.90;1.00;;;;;;5069762;28;20897;-55
2022/06/18 06:03:20;;;;;;;3.40;2.10;;;24.00;1.00;;;;;;5059864;28;20584;-53
2022/06/18 06:05:46;;;;;;;1.97;1.57;;;24.10;1.00;;;;;;5058757;28;20595;-54
2022/06/18 06:08:12;;;;;;;4.77;2.10;;;24.30;1.00;;;;;;5049643;28;20658;-54
2022/06/18 06:13:22;;;;;;;6.07;2.50;;;24.60;1.00;;;;;;5049887;28;20939;-54
2022/06/18 06:15:49;;;;;;;3.37;2.00;;;24.80;1.00;;;;;;5054895;28;20438;-56
2022/06/18 06:18:17;;;;;;;4.07;1.87;;;24.80;1.00;;;;;;5073539;28;20486;-57
2022/06/18 06:20:45;;;;;;;2.47;1.77;;;24.80;1.00;;;;;;5073074;28;20502;-54
2022/06/18 06:23:12;;;;;;;2.40;1.70;;;24.90;1.00;;;;;;5073273;28;20441;-53
2022/06/18 06:25:39;;;;;;;2.70;2.00;;;25.00;1.00;;;;;;5073042;28;21028;-56
2022/06/18 06:28:05;;;;;;;2.60;2.20;;;25.20;1.00;;;;;;5072898;28;20473;-54
2022/06/18 06:30:31;;;;;;;2.00;1.77;;;25.30;1.00;;;;;;5072619;28;20465;-56
2022/06/18 06:32:57;;;;;;;2.30;1.97;;;25.40;1.00;;;;;;5069251;28;20430;-54
2022/06/18 06:35:22;;;;;;;2.70;2.17;;;25.60;1.00;;;;;;5053115;28;20191;-54
2022/06/18 06:37:48;;;;;;;4.50;2.20;;;25.80;1.00;;;;;;5052904;28;20665;-53
2022/06/18 06:40:14;;;;;;;1.97;1.87;;;26.10;1.00;;;;;;5053180;28;20665;-56
2022/06/18 06:42:42;;;;;;;2.50;2.00;;;26.20;1.00;;;;;;5052517;28;20629;-56
2022/06/18 06:45:21;;;;;;;4.33;1.80;;;26.20;1.00;;;;;;5052874;28;20538;-53
2022/06/18 06:47:47;;;;;;;2.10;1.90;;;26.40;1.00;;;;;;5053030;28;20438;-54
2022/06/18 06:50:15;;;;;;;8.53;2.63;;;26.50;1.00;;;;;;5064586;28;20483;-54
2022/06/18 06:52:42;;;;;;;3.83;1.87;;;26.50;1.00;;;;;;5072813;28;20429;-56
2022/06/18 06:58:17;;;;;;;4.53;2.23;;;26.90;1.00;;;;;;5072599;28;20494;-55
2022/06/18 07:00:45;;;;;;;3.77;2.00;;;27.10;1.00;;;;;;5072447;28;20477;-54
2022/06/18 07:03:18;;;;;;;2.80;1.87;;;27.10;1.00;;;;;;5072222;28;20819;-54
2022/06/18 07:05:44;;;;;;;2.20;1.77;;;27.20;1.00;;;;;;5072590;28;20487;-53
2022/06/18 07:08:11;;;;;;;5.27;1.90;;;27.20;1.00;;;;;;5072300;28;20437;-54
2022/06/18 07:10:36;;;;;;;2.30;1.90;;;27.00;1.00;;;;;;5071621;28;20473;-57
2022/06/18 07:13:02;;;;;;;2.50;1.53;;;27.10;1.00;;;;;;5067375;28;20438;-55
2022/06/18 07:15:29;;;;;;;2.80;2.20;;;;;;;;;;5072329;28;20194;-55
2022/06/18 07:17:54;;;;;;;2.57;2.03;;;27.50;1.00;;;;;;5072214;28;20441;-55
2022/06/18 07:20:22;;;;;;;2.30;2.00;;;27.70;1.00;;;;;;5070631;28;20793;-54
2022/06/18 07:22:48;;;;;;;2.33;1.63;;;28.00;1.00;;;;;;5049847;28;20447;-55
2022/06/18 07:25:16;;;;;;;1.70;1.60;;;28.20;1.00;;;;;;5051626;28;20443;-56
2022/06/18 07:27:42;;;;;;;1.53;1.40;;;28.40;1.00;;;;;;5069172;28;20188;-55
2022/06/18 07:30:09;;;;;;;3.10;2.20;;;28.60;1.00;;;;;;5071778;28;20496;-52
2022/06/18 07:32:36;;;;;;;2.13;1.37;;;28.70;1.00;;;;;;5048727;28;20474;-55
2022/06/18 07:35:04;;;;;;;2.43;1.60;;;29.00;1.00;;;;;;5051770;28;20489;-56
2022/06/18 07:37:29;;;;;;;3.30;1.33;;;29.20;1.00;;;;;;5054603;28;20990;-54
2022/06/18 07:39:55;;;;;;;4.30;1.70;;;29.10;1.00;;;;;;5052024;28;20470;-55
2022/06/18 07:42:24;;;;;;;5.70;1.43;;;29.20;1.00;;;;;;5051958;28;20195;-55
2022/06/18 07:44:50;;;;;;;3.10;1.70;;;29.10;1.00;;;;;;5071462;28;20591;-55
2022/06/18 07:47:18;;;;;;;2.00;1.60;;;29.00;1.00;;;;;;5071435;28;20446;-53
2022/06/18 07:49:45;;;;;;;1.90;1.63;;;29.30;1.00;;;;;;5071242;28;20469;-56
2022/06/18 07:52:13;;;;;;;2.60;1.30;;;29.30;1.00;;;;;;5058666;28;20605;-56
2022/06/18 07:54:39;;;;;;;2.50;1.30;;;29.50;1.00;;;;;;5062046;28;20453;-53
2022/06/18 07:57:05;;;;;;;1.63;1.43;;;29.60;1.00;;;;;;5071453;28;20430;-55
2022/06/18 07:59:32;;;;;;;2.87;1.60;;;29.60;1.00;;;;;;5070843;28;20521;-56
2022/06/18 08:01:58;;;;;;;4.80;2.10;;;;;;;;;;5071046;28;20441;-55
2022/06/18 08:04:23;;;;;;;4.83;1.60;;;29.50;1.00;;;;;;5070950;28;20437;-55
2022/06/18 08:06:49;;;;;;;2.50;1.40;;;29.50;1.00;;;;;;5059917;28;21016;-55
2022/06/18 08:09:15;;;;;;;4.90;1.30;;;;;;;;;;5071303;28;20175;-55
2022/06/18 08:11:42;;;;;;;1.60;1.50;;;29.40;1.00;;;;;;5060293;28;20223;-55
2022/06/18 08:14:08;;;;;;;1.90;1.50;;;29.70;1.00;;;;;;5056486;28;20429;-54
2022/06/18 08:16:34;;;;;;;4.03;1.33;;;30.00;1.00;;;;;;5051438;28;20444;-54
2022/06/18 08:19:00;;;;;;;1.60;1.40;;;30.00;1.00;;;;;;5068954;28;20425;-56
2022/06/18 08:21:31;;;;;;;2.00;1.37;;;29.90;1.00;;;;;;5071109;28;20261;-55
2022/06/18 08:24:20;;;;;;;2.83;1.50;;;29.90;1.00;;;;;;5060370;28;20449;-53
2022/06/18 08:26:47;;;;;;;2.10;1.40;;;30.20;1.00;;;;;;5070267;28;20486;-55
2022/06/18 08:29:17;;;;;;;1.50;1.40;;;30.30;1.00;;;;;;5069638;28;20564;-55
2022/06/18 08:31:44;;;;;;;3.87;1.60;;;30.30;1.00;;;;;;5070530;28;20469;-56
2022/06/18 08:34:14;;;;;;;3.90;1.50;;;30.30;1.00;;;;;;5063721;28;20919;-56
2022/06/18 08:36:41;;;;;;;1.40;1.10;;;28.90;1.00;;;;;;5050512;28;20906;-54
2022/06/18 08:39:07;;;;;;;2.50;1.53;;;30.30;1.00;;;;;;5059453;28;20582;-55
2022/06/18 08:42:09;;;;;;;1.77;1.67;;;30.40;1.00;;;;;;5054789;28;20561;-55
2022/06/18 08:45:00;;;;;;;2.73;1.67;;;30.80;1.00;;;;;;5050083;28;20438;-57
2022/06/18 08:47:50;;;;;;;1.60;1.47;;;30.70;1.00;;;;;;5053315;28;20548;-55
2022/06/18 08:50:25;;;;;;;2.83;1.50;;;30.70;1.00;;;;;;5070018;28;20472;-55
2022/06/18 08:52:59;;;;;;;2.13;1.70;;;30.80;1.00;;;;;;5063843;28;20527;-53
2022/06/18 08:55:34;;;;;;;3.77;1.70;;;31.10;1.00;;;;;;5050518;28;20752;-55
2022/06/18 08:58:28;;;;;;;2.47;1.53;;;31.20;1.00;;;;;;5049825;28;20457;-54
2022/06/18 09:00:54;;;;;;;4.93;1.80;;;31.00;1.00;;;;;;5061723;28;20419;-55
2022/06/18 09:03:25;;;;;;;2.33;1.50;;;31.00;1.00;;;;;;5069911;28;20906;-54
2022/06/18 09:06:06;;;;;;;2.20;1.23;;;31.10;1.00;;;;;;5065851;28;20191;-54
2022/06/18 09:08:45;;;;;;;2.23;1.50;;;31.10;1.00;;;;;;5067136;28;20449;-55
2022/06/18 09:11:35;;;;;;;4.23;1.50;;;;;;;;;;5048596;28;20477;-54
2022/06/18 09:14:14;;;;;;;1.83;1.30;;;31.10;1.00;;;;;;5053317;28;20931;-54
2022/06/18 09:16:46;;;;;;;3.53;1.37;;;31.10;1.00;;;;;;5062543;28;20444;-56
2022/06/18 09:19:17;;;;;;;3.63;1.70;;;31.10;1.00;;;;;;5060039;28;20434;-54
2022/06/18 09:21:48;;;;;;;2.60;1.63;;;31.30;1.00;;;;;;5050020;28;20430;-55
2022/06/18 09:24:39;;;;;;;2.67;1.53;;;31.50;1.00;;;;;;5049514;28;20430;-55
2022/06/18 09:27:10;;;;;;;2.73;1.77;;;31.50;1.00;;;;;;5049241;28;20975;-53
2022/06/18 09:29:48;;;;;;;3.23;1.90;;;31.20;1.00;;;;;;5049789;28;20418;-56
2022/06/18 09:32:35;;;;;;;2.57;1.87;;;31.30;1.00;;;;;;5057618;28;20445;-55
2022/06/18 09:35:18;;;;;;;1.50;1.40;;;31.60;1.00;;;;;;5069735;28;20977;-54
2022/06/18 09:38:01;;;;;;;2.97;1.63;;;31.50;1.00;;;;;;5069605;28;20438;-55
2022/06/18 09:40:29;;;;;;;2.17;1.47;;;31.50;1.00;;;;;;5063470;28;20442;-53
2022/06/18 09:43:06;;;;;;;2.47;1.60;;;31.50;1.00;;;;;;5049850;28;20521;-55
2022/06/18 09:45:36;;;;;;;2.17;1.33;;;31.70;1.00;;;;;;5049072;28;20450;-55
2022/06/18 09:48:02;;;;;;;3.00;1.57;;;31.90;1.00;;;;;;5048155;28;20453;-54
2022/06/18 09:50:37;;;;;;;4.90;1.60;;;32.10;1.00;;;;;;5050481;28;20502;-54
2022/06/18 09:53:14;;;;;;;3.07;1.67;;;32.10;1.00;;;;;;5053893;28;20455;-54
2022/06/18 09:55:45;;;;;;;5.27;1.23;;;32.10;1.00;;;;;;5053550;28;20469;-54
2022/06/18 09:58:23;;;;;;;4.40;1.37;;;32.20;1.00;;;;;;5053573;28;20426;-54
2022/06/18 10:00:52;;;;;;;2.17;1.73;;;32.10;1.00;;;;;;5053492;28;20492;-54
2022/06/18 10:09:03;;;;;;;3.20;1.40;;;32.00;1.00;;;;;;5052638;28;20445;-55
2022/06/18 10:11:29;;;;;;;3.13;1.60;;;32.00;1.00;;;;;;5052928;28;20461;-54
2022/06/18 10:14:33;;;;;;;5.07;1.50;;;32.30;1.00;;;;;;5053153;28;20525;-53
2022/06/18 10:17:22;;;;;;;2.27;1.67;;;32.00;1.00;;;;;;5030558;28;20278;-53
2022/06/18 10:20:03;;;;;;;4.13;1.60;;;31.90;1.00;;;;;;5041644;28;20820;-56
2022/06/18 10:22:42;;;;;;;4.20;1.70;;;32.10;1.00;;;;;;5066763;28;20821;-54
2022/06/18 10:25:28;;;;;;;3.20;1.40;;;32.00;1.00;;;;;;5072873;28;20437;-56
2022/06/18 10:27:54;;;;;;;4.07;1.63;;;31.90;1.00;;;;;;5072424;28;20559;-54
2022/06/18 10:30:51;;;;;;;3.80;2.23;;;32.10;1.00;;;;;;5072888;28;20531;-53
2022/06/18 10:33:33;;;;;;;2.57;1.53;;;32.30;1.00;;;;;;5052624;28;20200;-55
2022/06/18 10:36:15;;;;;;;2.90;1.47;;;32.50;1.00;;;;;;5071401;28;20411;-56
2022/06/18 10:38:46;;;;;;;2.53;2.00;;;32.50;1.00;;;;;;5073144;28;20465;-55
2022/06/18 10:41:22;;;;;;;5.53;2.00;;;32.80;1.00;;;;;;5065376;28;20446;-56
2022/06/18 10:44:19;;;;;;;4.43;1.80;;;32.70;1.00;;;;;;5052870;28;20434;-54
2022/06/18 10:46:45;;;;;;;2.43;1.60;;;32.50;1.00;;;;;;5072478;28;20799;-56
2022/06/18 10:49:11;;;;;;;2.27;1.67;;;32.70;1.00;;;;;;5068505;28;20446;-56
2022/06/18 10:51:47;;;;;;;2.50;1.63;;;32.70;1.00;;;;;;5052342;28;20255;-55
2022/06/18 10:54:13;;;;;;;2.33;1.60;;;32.60;1.00;;;;;;5051446;28;20236;-55
2022/06/18 10:56:54;;;;;;;3.80;1.70;;;32.60;1.00;;;;;;5050962;28;20430;-55
2022/06/18 10:59:34;;;;;;;4.90;1.97;;;32.50;1.00;;;;;;5052038;28;20450;-54
2022/06/18 11:02:11;;;;;;;5.20;2.00;;;32.50;1.00;;;;;;5051960;28;20451;-54
2022/06/18 11:04:38;;;;;;;3.40;1.93;;;32.70;1.00;;;;;;5052363;28;20438;-54
2022/06/18 11:07:07;;;;;;;3.50;2.00;;;32.70;1.00;;;;;;5052085;28;20434;-54
2022/06/18 11:09:39;;;;;;;4.13;1.77;;;32.70;1.00;;;;;;5052214;28;20430;-54
2022/06/18 11:12:21;;;;;;;2.17;2.00;;;32.50;1.00;;;;;;5051396;28;20465;-56
2022/06/18 11:14:48;;;;;;;2.50;1.87;;;32.50;1.00;;;;;;5052272;28;20798;-56
2022/06/18 11:17:26;;;;;;;3.57;1.90;;;32.70;1.00;;;;;;5051644;28;20431;-54
2022/06/18 11:19:53;;;;;;;2.50;2.13;;;33.00;1.00;;;;;;5052211;28;20464;-56
2022/06/18 11:22:28;;;;;;;2.33;1.73;;;33.00;1.00;;;;;;5050897;28;20791;-55
2022/06/18 11:24:56;;;;;;;4.70;1.90;;;33.00;1.00;;;;;;5051900;28;20927;-56
2022/06/18 11:27:24;;;;;;;4.43;2.20;;;33.00;1.00;;;;;;5052006;28;20519;-55
2022/06/18 11:29:52;;;;;;;2.93;2.07;;;33.10;1.00;;;;;;5051490;28;20413;-56
2022/06/18 11:32:26;;;;;;;3.43;1.97;;;33.20;1.00;;;;;;5064602;28;20799;-55
2022/06/18 11:35:28;;;;;;;3.33;1.80;;;33.20;1.00;;;;;;5072050;28;20486;-56
2022/06/18 11:38:16;;;;;;;3.27;2.30;;;32.90;1.00;;;;;;5063974;28;20971;-55
2022/06/18 11:40:51;;;;;;;4.17;1.70;;;33.10;1.00;;;;;;5051836;28;20480;-54
2022/06/18 11:43:30;;;;;;;3.63;2.00;;;33.50;1.00;;;;;;5051932;28;20894;-54
2022/06/18 11:46:01;;;;;;;4.83;2.30;;;33.20;1.00;;;;;;5055180;28;20470;-54
2022/06/18 11:48:40;;;;;;;4.67;2.23;;;33.50;1.00;;;;;;5070559;28;20461;-57
2022/06/18 11:51:33;;;;;;;5.23;2.20;;;33.40;1.00;;;;;;5053247;28;20995;-54
2022/06/18 11:54:06;;;;;;;5.00;1.90;;;33.70;1.00;;;;;;5068345;28;20492;-54
2022/06/18 11:56:47;;;;;;;3.93;2.27;;;33.50;1.00;;;;;;5051303;28;20445;-56
2022/06/18 11:59:37;;;;;;;4.63;2.93;;;33.50;1.00;;;;;;5051416;28;20426;-55
2022/06/18 12:02:21;;;;;;;8.23;2.50;;;33.50;1.00;;;;;;5059045;28;20507;-52
2022/06/18 12:04:55;;;;;;;3.57;2.23;;;33.60;1.00;;;;;;5070200;28;20453;-55
2022/06/18 12:07:36;;;;;;;4.93;2.73;;;33.80;1.00;;;;;;5066679;28;20887;-53
2022/06/18 12:10:04;;;;;;;3.90;2.37;;;34.00;1.00;;;;;;5064354;28;20943;-54
2022/06/18 12:12:44;;;;;;;6.07;2.60;;;33.90;1.00;;;;;;5066945;28;20874;-55
2022/06/18 12:15:10;;;;;;;7.47;2.50;;;33.80;1.00;;;;;;5048714;28;20442;-54
2022/06/18 12:17:51;;;;;;;4.03;2.47;;;33.70;1.00;;;;;;5050749;28;20441;-57
2022/06/18 12:20:22;;;;;;;3.17;2.23;;;33.80;1.00;;;;;;5051040;28;20528;-56
2022/06/18 12:23:46;;;;;;;7.27;2.97;;;34.00;1.00;;;;;;5050373;28;20434;-55
2022/06/18 12:26:20;;;;;;;5.83;2.33;;;34.10;1.00;;;;;;5007263;28;20484;-55
2022/06/18 12:29:17;;;;;;;5.33;3.00;;;33.80;1.00;;;;;;5065732;28;20430;-55
2022/06/18 12:31:59;;;;;;;11.10;3.30;;;33.90;1.00;;;;;;5050452;28;20445;-57
2022/06/18 12:34:31;;;;;;;5.43;2.33;;;33.80;1.00;;;;;;5050786;28;20847;-54
2022/06/18 12:37:24;;;;;;;4.33;2.10;;;34.10;1.00;;;;;;5050358;28;20446;-54
2022/06/18 12:40:33;;;;;;;5.27;2.60;;;33.90;1.00;;;;;;5050251;28;20441;-55
2022/06/18 12:43:17;;;;;;;5.97;2.50;;;33.80;1.00;;;;;;5048947;28;20439;-55
2022/06/18 12:45:43;;;;;;;6.50;2.90;;;33.90;1.00;;;;;;5047595;28;20438;-55
2022/06/18 12:48:14;;;;;;;6.80;2.50;;;34.00;1.00;;;;;;5050332;28;20426;-54
2022/06/18 12:51:11;;;;;;;5.00;2.80;;;33.90;1.00;;;;;;5050032;28;20239;-54
2022/06/18 12:54:19;;;;;;;5.13;2.20;;;33.80;1.00;;;;;;5047104;28;20458;-54
2022/06/18 12:56:56;;;;;;;4.80;2.50;;;33.80;1.00;;;;;;5050131;28;20461;-56
2022/06/18 12:59:30;;;;;;;6.10;2.70;;;33.90;1.00;;;;;;5050144;28;20426;-54
2022/06/18 13:02:02;;;;;;;6.07;2.90;;;34.00;1.00;;;;;;5050140;28;20969;-53
2022/06/18 13:04:46;;;;;;;6.80;2.80;;;33.80;1.00;;;;;;5049945;28;20463;-53
2022/06/18 13:07:17;;;;;;;6.60;3.13;;;33.80;1.00;;;;;;5049932;28;20521;-55
2022/06/18 13:10:14;;;;;;;4.70;2.70;;;34.00;1.00;;;;;;5049768;28;20461;-53
2022/06/18 13:12:59;;;;;;;5.90;2.73;;;34.00;1.00;;;;;;5049391;28;20935;-54
2022/06/18 13:15:38;;;;;;;10.23;2.90;;;33.90;1.00;;;;;;5049693;28;20529;-55
2022/06/18 13:18:28;;;;;;;6.27;3.07;;;34.10;1.00;;;;;;5050071;28;20427;-55
2022/06/18 13:20:57;;;;;;;7.60;2.80;;;34.30;1.00;;;;;;5049764;28;20409;-55
2022/06/18 13:29:39;;;;;;;8.10;2.90;;;34.30;1.00;;;;;;5049908;28;20444;-54
2022/06/18 13:32:09;;;;;;;14.70;2.97;;;34.30;1.00;;;;;;5060089;28;20485;-53
2022/06/18 13:34:37;;;;;;;6.73;2.90;;;34.40;1.00;;;;;;5069737;28;21178;-56
2022/06/18 13:37:14;;;;;;;10.93;3.47;;;34.50;1.00;;;;;;5070087;28;20445;-56
2022/06/18 13:39:55;;;;;;;8.50;2.83;;;34.60;1.00;;;;;;5051312;28;20434;-55
2022/06/18 13:42:38;;;;;;;9.17;2.90;;;34.60;1.00;;;;;;5048341;28;20509;-54
2022/06/18 13:45:25;;;;;;;8.67;3.03;;;34.70;1.00;;;;;;5048833;28;20438;-54
2022/06/18 13:48:11;;;;;;;7.70;3.13;;;34.70;1.00;;;;;;5057672;28;20529;-55